Arak, Iran
Current Conditions -  °F | °C
As of 12:00 PM on Wednesday 26 Nov 2014 (Local Time) from OICK Reporting Station
Scattered Clouds Scattered Clouds  
Wind Chill: 12°   Ceiling: Unl
Heat Index: 12°   Visibility: 6mi
Dew Point:   Wind: 0mph
Humidity: 62%   Direction: NA
Pressure: 30.06"   Gusts: NA
Location:  34.1°N, 49.4°E
Report Text: OICK 260900Z 00000KT 9999 SCT040 12/05 Q1018
Loading
Personal Weather Stations






























Interactive Weather Map New forecast layout! Learn more

10-Day Weather Forecast

Advertisements
Track Severe Weather on mobile